Airfield :
LOGIN :

Register | Disclaimer

   EN    FR    IT 

 










Legend :    VFR   Marginal VFR   IFR   Intensive IFR   Very Intensive IFR
Visi :
Ceiling :
>= 8 km
>= 3000ft
5 to 8 km
1000 to 3000 ft
1500m to 5 km
500 to 1000 ft
800 to 1500m
200 to 500 ft
< 800m
< 200 ft
Symbols :   Thunderstorms  Fog  Heavy snow  Heavy precipitations  Wind > 20 kt
SIGMETs :     Misc.  Thunderstorms  Icing  Turbulence  Mountain Waves  Volcanic Ashes







- Airport Elevation : 13 ft
- IATA code : LYX
- Download approach charts


EGMD - Lydd

CURRENT METAR :
  • 200850Z 22020KT 9999 BKN005 BKN015 19/18 Q1008

EXPIRED METARs :
  • 200820Z 21018KT 9999 SCT006 BKN014 19/18 Q1008
  • 200750Z 20014KT 1600 -SHRA FEW004 BKN011 18/18 Q1007
  • 200720Z 20014KT 9000 FEW004 BKN015 18/18 Q1007 RESHRA
  • 200650Z 21014KT 8000 3500SE VCSH FEW005 BKN011 BKN015 18/17 Q1007 RESHRA
  • 200620Z AUTO 22014KT 9999 FEW013/// SCT020/// BKN032/// 18/17 Q1007

TAF AMD TAF EGMD
Valid from the 20 at 09:00 until the 20 at 18:00 UTC


200905Z 2009/2018 22015KT 9999 BKN005
BECMG 2009/2011 SCT012
PROB30
TEMPO 2010/2017 20020G30KT 3000 +SHRA TSGS
ATIS : +44 1797 322 422
No reported NOTAMs for that airfield.



MET'MAP, your aeronautical weather chart ! - Copyright ORBIFLY December 2007 - Disclaimer

ORBIFLY MET'MAP TEAM :

Programming & Development : Alexandra Zaïnal
Concept & Development : Baudouin d'Aumeries
Co-Development & Prog : Marc-Olivier Méhu
Technical & hardware support : Manuel Goepfert

Contact : metmap@orbifly.com




SOURCES & CREDITS :

   NOAA